SAOC/RCU METAR and TAF weather

Enter ICAO airport designator
Station Type Date Time Source
SAOC METAR 2022/11/30 16:00 UTC NOAA

SAOC 301600Z 05013KT 9999 BKN030 21/15 Q1011 RMK ESTIMATED WIND


Station Type Date Time Source
SAOC Decoded METAR 2022/11/30 16:00 UTC NOAA

Rio Cuarto Aerodrome, Argentina (SAOC) 33-07S 064-14W 421M
Nov 30, 2022 - 11:00 AM EST / 2022.11.30 1600 UTC
Wind: from the NE (050 degrees) at 15 MPH (13 KT):0
Visibility: greater than 7 mile(s):0
Sky conditions: mostly cloudy
Temperature: 69 F (21 C)
Dew Point: 59 F (15 C)
Relative Humidity: 68%
Pressure (altimeter): 29.85 in. Hg (1011 hPa)
ob: SAOC 301600Z 05013KT 9999 BKN030 21/15 Q1011 RMK ESTIMATED WIND
cycle: 16

Station Type Date Time Source
SAOC TAF 2022/11/26 12:15 UTC NOAA

TAF SAOC 261100Z 2612/2712 36020G30KT CAVOK TX36/2618Z TN23/2710Z
BECMG 2616/2618 02025G35KT 9999 FEW040
BECMG 2700/2703 36010KT CAVOK
TEMPO 2703/2707 VRB04KT

Example: see airport list